Time;durP1;ratioP1;P1;durP2;ratioP2;P2;SDS_P1;SDS_P2;PMS_P1;PMS_P2;Temp;Humidity;BMP_temperature;BMP_pressure;BME280_temperature;BME280_humidity;BME280_pressure;Samples;Min_cycle;Max_cycle;Signal;HPM_P1;HPM_P2
2021/07/14 00:00:13;;;;;;;18.90;13.68;;;24.10;99.90;;;;;;5075334;28;20115;-89
2021/07/14 00:02:39;;;;;;;19.40;13.57;;;24.10;99.90;;;;;;5074682;28;20085;-89
2021/07/14 00:05:11;;;;;;;16.92;13.57;;;24.10;99.90;;;;;;5074862;28;20328;-89
2021/07/14 00:07:37;;;;;;;15.93;13.55;;;24.00;99.90;;;;;;5075156;28;20025;-89
2021/07/14 00:10:29;;;;;;;15.00;13.00;;;24.00;99.90;;;;;;5075165;28;20025;-89
2021/07/14 00:23:17;;;;;;;17.38;13.70;;;24.00;99.90;;;;;;5076546;28;20031;-89
2021/07/14 00:25:43;;;;;;;18.60;13.82;;;23.90;99.90;;;;;;5075870;28;20028;-89
2021/07/14 00:28:08;;;;;;;17.52;14.05;;;23.90;99.90;;;;;;5075741;28;20115;-89
2021/07/14 00:30:37;;;;;;;17.33;13.95;;;23.90;99.90;;;;;;5074704;28;20382;-89
2021/07/14 00:33:04;;;;;;;17.33;13.63;;;23.90;99.90;;;;;;5074683;28;20107;-89
2021/07/14 00:35:29;;;;;;;16.90;13.57;;;23.90;99.90;;;;;;5076025;28;20040;-89
2021/07/14 00:37:55;;;;;;;15.40;13.77;;;23.90;99.90;;;;;;5064065;28;20027;-89
2021/07/14 00:40:21;;;;;;;16.63;14.23;;;23.90;99.90;;;;;;5054544;28;20063;-89
2021/07/14 00:42:47;;;;;;;17.40;13.65;;;23.90;99.90;;;;;;5054645;28;20068;-89
2021/07/14 00:45:13;;;;;;;16.17;13.35;;;23.80;99.90;;;;;;5055705;28;20437;-89
2021/07/14 00:47:50;;;;;;;18.67;13.93;;;23.80;99.90;;;;;;5054353;28;20025;-89
2021/07/14 00:50:16;;;;;;;16.02;13.55;;;23.80;99.90;;;;;;5055413;28;20021;-89
2021/07/14 00:52:42;;;;;;;17.40;13.30;;;23.80;99.90;;;;;;5054288;28;20471;-89
2021/07/14 00:55:08;;;;;;;15.48;13.77;;;23.80;99.90;;;;;;5054254;28;20036;-89
2021/07/14 00:57:34;;;;;;;18.40;14.27;;;23.80;99.90;;;;;;5055368;28;20032;-89
2021/07/14 01:00:00;;;;;;;15.35;13.55;;;23.80;99.90;;;;;;5054136;28;20029;-89
2021/07/14 01:02:27;;;;;;;16.70;14.02;;;23.80;99.90;;;;;;5055151;28;20025;-89
2021/07/14 01:05:18;;;;;;;14.90;13.38;;;23.80;99.90;;;;;;5054863;28;20072;-89
2021/07/14 01:08:14;;;;;;;15.07;13.48;;;23.70;99.90;;;;;;5052520;28;20493;-89
2021/07/14 01:11:02;;;;;;;18.13;13.15;;;23.80;99.90;;;;;;5075079;28;20459;-89
2021/07/14 01:13:43;;;;;;;15.13;13.50;;;23.70;99.90;;;;;;5073770;28;20111;-89
2021/07/14 01:16:17;;;;;;;15.40;13.38;;;23.70;99.90;;;;;;5075013;28;20024;-89
2021/07/14 01:18:55;;;;;;;17.13;13.95;;;23.70;99.90;;;;;;5062586;28;20062;-89
2021/07/14 01:21:28;;;;;;;15.65;12.63;;;23.70;99.90;;;;;;5053584;28;20439;-89
2021/07/14 01:24:17;;;;;;;15.48;13.82;;;23.70;99.90;;;;;;5055099;28;20498;-89
2021/07/14 01:27:06;;;;;;;16.40;14.48;;;23.70;99.90;;;;;;5058161;28;20470;-89
2021/07/14 01:29:47;;;;;;;17.23;13.93;;;23.60;99.90;;;;;;5074712;28;20027;-89
2021/07/14 01:32:15;;;;;;;16.02;13.77;;;23.60;99.90;;;;;;5073509;28;20029;-89
2021/07/14 01:34:47;;;;;;;16.45;14.43;;;23.60;99.90;;;;;;5073535;28;20028;-89
2021/07/14 01:37:18;;;;;;;16.13;13.80;;;23.60;99.90;;;;;;5074604;28;20020;-89
2021/07/14 01:39:46;;;;;;;15.70;13.98;;;23.60;99.90;;;;;;5074649;28;20489;-89
2021/07/14 01:42:14;;;;;;;15.45;13.80;;;23.50;99.90;;;;;;5074506;28;20025;-89
2021/07/14 01:44:40;;;;;;;16.90;13.93;;;23.60;99.90;;;;;;5073477;28;20035;-89
2021/07/14 01:47:06;;;;;;;15.07;13.63;;;23.60;99.90;;;;;;5074517;28;20020;-89
2021/07/14 01:49:35;;;;;;;18.38;13.93;;;23.60;99.90;;;;;;5074453;28;20040;-89
2021/07/14 01:52:05;;;;;;;16.33;14.63;;;23.60;99.90;;;;;;5073543;28;20029;-89
2021/07/14 01:54:31;;;;;;;17.60;14.30;;;23.60;99.90;;;;;;5073217;28;20619;-89
2021/07/14 01:56:58;;;;;;;15.63;13.93;;;23.70;99.90;;;;;;5073491;28;20474;-89
2021/07/14 01:59:27;;;;;;;15.50;13.73;;;23.60;99.90;;;;;;5073255;28;20429;-89
2021/07/14 02:01:54;;;;;;;15.68;13.95;;;23.70;99.90;;;;;;5073158;28;20021;-89
2021/07/14 02:04:35;;;;;;;15.13;13.50;;;23.60;99.90;;;;;;5072971;28;20044;-89
2021/07/14 02:07:06;;;;;;;15.65;13.90;;;23.70;99.90;;;;;;5073165;28;20527;-89
2021/07/14 02:09:37;;;;;;;15.52;13.60;;;23.60;99.90;;;;;;5074267;28;20029;-89
2021/07/14 02:12:07;;;;;;;16.55;14.45;;;23.70;99.90;;;;;;5074470;28;20021;-89
2021/07/14 02:14:39;;;;;;;16.13;13.40;;;23.70;99.90;;;;;;5074264;28;20021;-89
2021/07/14 02:17:11;;;;;;;16.63;14.02;;;23.70;99.90;;;;;;5074265;28;20457;-89
2021/07/14 02:19:40;;;;;;;16.23;14.52;;;23.70;99.90;;;;;;5073049;28;20024;-89
2021/07/14 02:22:06;;;;;;;17.25;14.65;;;23.70;99.90;;;;;;5068477;28;20024;-89
2021/07/14 02:24:33;;;;;;;18.23;15.13;;;23.70;99.90;;;;;;5054207;28;20029;-89
2021/07/14 02:27:06;;;;;;;21.25;15.15;;;23.80;99.90;;;;;;5056221;28;20021;-89
2021/07/14 02:29:39;;;;;;;16.60;14.80;;;23.70;99.90;;;;;;5057087;28;20031;-89
2021/07/14 02:32:06;;;;;;;17.75;15.20;;;23.70;99.90;;;;;;5074614;28;20025;-89
2021/07/14 02:34:32;;;;;;;17.25;14.48;;;23.70;99.90;;;;;;5077145;28;20074;-89
2021/07/14 02:37:00;;;;;;;16.85;14.68;;;23.80;99.90;;;;;;5077137;28;20462;-89
2021/07/14 02:39:27;;;;;;;19.92;15.75;;;23.70;99.90;;;;;;5078028;28;20085;-89
2021/07/14 18:09:02;;;;;;;18.67;4.63;;;28.60;68.20;;;;;;4995586;28;1622378;-87
2021/07/14 18:11:28;;;;;;;4.90;4.22;;;28.20;67.50;;;;;;5050499;28;20044;-88
2021/07/14 18:13:54;;;;;;;7.40;4.90;;;28.00;69.00;;;;;;5050354;28;20055;-88
2021/07/14 18:16:19;;;;;;;8.52;4.50;;;28.00;69.90;;;;;;5050315;28;20033;-87
2021/07/14 18:18:45;;;;;;;6.53;4.82;;;28.00;70.50;;;;;;5049971;28;20025;-90
2021/07/14 18:21:13;;;;;;;5.40;4.15;;;27.90;70.90;;;;;;5050010;28;20028;-88
2021/07/14 18:23:39;;;;;;;7.10;4.40;;;27.90;71.40;;;;;;5050108;28;20033;-88
2021/07/14 18:26:07;;;;;;;6.50;4.63;;;28.00;71.60;;;;;;5050082;28;20021;-88
2021/07/14 18:28:38;;;;;;;7.35;4.75;;;27.90;71.50;;;;;;5049949;28;20029;-93
2021/07/14 18:31:05;;;;;;;9.90;4.43;;;27.90;71.70;;;;;;5049777;28;20037;-88
2021/07/14 18:33:31;;;;;;;6.95;4.57;;;27.90;71.70;;;;;;5049909;28;20032;-87
2021/07/14 18:35:56;;;;;;;13.32;7.85;;;27.90;71.80;;;;;;5050910;28;20029;-88
2021/07/14 18:38:22;;;;;;;11.43;4.60;;;27.90;71.70;;;;;;5049739;28;20029;-92
2021/07/14 18:40:53;;;;;;;11.90;7.10;;;27.90;71.70;;;;;;5049880;28;20436;-89
2021/07/14 18:43:19;;;;;;;9.93;6.20;;;27.90;71.60;;;;;;5050011;28;20051;-88
2021/07/14 18:45:44;;;;;;;7.38;5.43;;;27.90;71.50;;;;;;5049850;28;20029;-88
2021/07/14 18:48:10;;;;;;;5.80;4.88;;;27.90;72.00;;;;;;5049367;28;20021;-88
2021/07/14 18:50:36;;;;;;;8.07;4.85;;;27.90;72.00;;;;;;5049596;28;20112;-86
2021/07/14 18:53:01;;;;;;;9.98;5.15;;;27.90;72.00;;;;;;5049341;28;20026;-87
2021/07/14 18:55:27;;;;;;;11.52;5.15;;;27.80;71.80;;;;;;5049458;28;20376;-88
2021/07/14 18:57:53;;;;;;;6.38;5.10;;;27.80;72.20;;;;;;5049542;28;20033;-87
2021/07/14 19:00:24;;;;;;;8.85;4.95;;;27.80;72.20;;;;;;5050241;28;20025;-86
2021/07/14 19:02:51;;;;;;;7.70;5.10;;;27.70;71.80;;;;;;5049074;28;20025;-87
2021/07/14 19:05:23;;;;;;;7.20;5.20;;;27.70;72.00;;;;;;5049140;28;20025;-86
2021/07/14 19:07:49;;;;;;;8.57;4.97;;;27.70;72.10;;;;;;5049075;28;20092;-88
2021/07/14 19:10:16;;;;;;;5.60;4.65;;;27.60;72.20;;;;;;5050318;28;20702;-87
2021/07/14 19:12:42;;;;;;;6.07;4.63;;;27.60;72.30;;;;;;5050452;28;20025;-88
2021/07/14 19:15:09;;;;;;;6.07;4.70;;;27.60;72.30;;;;;;5039102;28;20098;-87
2021/07/14 19:17:35;;;;;;;8.05;4.50;;;27.50;72.30;;;;;;5029096;28;20647;-87
2021/07/14 19:20:02;;;;;;;8.52;4.55;;;27.50;72.40;;;;;;5018046;28;20057;-89
2021/07/14 19:22:28;;;;;;;9.05;5.05;;;27.50;72.60;;;;;;5016111;28;20030;-88
2021/07/14 19:24:53;;;;;;;9.25;6.13;;;27.50;72.70;;;;;;5017017;28;20049;-89
2021/07/14 19:27:19;;;;;;;8.13;4.88;;;27.40;72.70;;;;;;5032524;28;20029;-86
2021/07/14 19:29:46;;;;;;;16.27;8.25;;;27.40;72.80;;;;;;5016135;28;20057;-89
2021/07/14 19:32:13;;;;;;;8.50;4.60;;;27.40;73.00;;;;;;5015888;28;20033;-87
2021/07/14 19:34:39;;;;;;;56.25;28.33;;;27.40;73.10;;;;;;5016982;28;20030;-87
2021/07/14 19:37:06;;;;;;;8.80;5.18;;;27.30;73.20;;;;;;5015430;28;20030;-89
2021/07/14 19:39:33;;;;;;;100.63;61.85;;;27.30;73.50;;;;;;5015957;28;20028;-90
2021/07/14 19:41:59;;;;;;;11.85;5.15;;;27.30;73.50;;;;;;5035235;28;20033;-88
2021/07/14 19:44:26;;;;;;;33.20;14.05;;;27.20;73.80;;;;;;5035217;28;20030;-89
2021/07/14 19:46:51;;;;;;;12.20;5.57;;;27.20;74.00;;;;;;5035513;28;20030;-87
2021/07/14 19:49:17;;;;;;;13.80;7.25;;;27.20;74.20;;;;;;5035213;28;20049;-90
2021/07/14 19:51:43;;;;;;;9.18;5.65;;;27.20;74.50;;;;;;5035113;28;20048;-91
2021/07/14 19:54:08;;;;;;;18.25;8.27;;;27.10;74.70;;;;;;5035140;28;20078;-90
2021/07/14 19:56:34;;;;;;;10.07;6.43;;;27.00;74.90;;;;;;5035089;28;20025;-88
2021/07/14 19:59:00;;;;;;;16.65;7.57;;;27.00;75.50;;;;;;5034970;28;20029;-88
2021/07/14 20:01:26;;;;;;;11.30;6.97;;;27.00;76.30;;;;;;5034887;28;20028;-85
2021/07/14 20:03:51;;;;;;;15.10;7.32;;;27.00;77.20;;;;;;5034352;28;20459;-86
2021/07/14 20:06:17;;;;;;;10.82;6.80;;;26.90;77.60;;;;;;5027093;28;20026;-86
2021/07/14 20:08:43;;;;;;;11.40;6.70;;;26.90;78.30;;;;;;5015352;28;20453;-86
2021/07/14 20:11:10;;;;;;;11.52;6.72;;;26.90;78.80;;;;;;5027353;28;20411;-85
2021/07/14 20:13:37;;;;;;;9.70;7.00;;;26.90;79.20;;;;;;5033944;28;20041;-85
2021/07/14 20:16:03;;;;;;;13.60;7.97;;;26.90;79.50;;;;;;5034229;28;20025;-85
2021/07/14 20:18:30;;;;;;;11.45;7.65;;;26.80;80.00;;;;;;5034566;28;20029;-88
2021/07/14 20:20:56;;;;;;;13.63;8.23;;;26.80;80.30;;;;;;5034867;28;20033;-88
2021/07/14 20:23:22;;;;;;;11.57;8.10;;;26.80;81.00;;;;;;5034810;28;20116;-88
2021/07/14 20:25:47;;;;;;;15.40;8.05;;;26.70;81.50;;;;;;5034607;28;20059;-88
2021/07/14 20:28:13;;;;;;;12.05;7.68;;;26.70;81.90;;;;;;5035419;28;20025;-88
2021/07/14 20:30:39;;;;;;;10.52;7.68;;;26.70;82.30;;;;;;5033828;28;20029;-88
2021/07/14 20:33:05;;;;;;;10.48;7.65;;;26.70;82.70;;;;;;5034905;28;20056;-88
2021/07/14 20:35:32;;;;;;;12.25;7.78;;;26.60;83.10;;;;;;5034606;28;20035;-88
2021/07/14 20:37:59;;;;;;;12.38;7.75;;;26.60;83.80;;;;;;5034542;28;20045;-88
2021/07/14 20:40:25;;;;;;;12.85;7.95;;;26.60;84.20;;;;;;5034503;28;20025;-88
2021/07/14 20:42:50;;;;;;;11.20;7.13;;;26.60;84.40;;;;;;5034927;28;20040;-88
2021/07/14 20:45:16;;;;;;;9.38;7.25;;;26.50;84.80;;;;;;5034949;28;20025;-88
2021/07/14 20:47:43;;;;;;;13.77;7.20;;;26.50;85.30;;;;;;5034367;28;20030;-88
2021/07/14 20:50:11;;;;;;;10.43;7.50;;;26.50;85.60;;;;;;5034420;28;20049;-88
2021/07/14 20:52:38;;;;;;;10.68;7.25;;;26.40;85.90;;;;;;5035101;28;20049;-88
2021/07/14 20:55:04;;;;;;;11.55;7.43;;;26.40;86.30;;;;;;5034323;28;20025;-88
2021/07/14 20:57:30;;;;;;;12.80;7.35;;;26.40;86.60;;;;;;5034679;28;20079;-87
2021/07/14 20:59:56;;;;;;;10.88;7.65;;;26.30;86.90;;;;;;5033872;28;20025;-87
2021/07/14 21:02:22;;;;;;;13.90;7.53;;;26.30;87.30;;;;;;5034041;28;20025;-88
2021/07/14 21:04:48;;;;;;;12.30;7.97;;;26.30;87.60;;;;;;5035425;28;20078;-89
2021/07/14 21:07:14;;;;;;;12.88;7.72;;;26.20;87.90;;;;;;5034639;28;20049;-88
2021/07/14 21:09:40;;;;;;;12.10;7.82;;;26.10;88.20;;;;;;5034931;28;20022;-88
2021/07/14 21:12:07;;;;;;;11.80;8.23;;;26.10;88.60;;;;;;5034029;28;20017;-88
2021/07/14 21:14:33;;;;;;;11.18;7.53;;;26.10;88.80;;;;;;5033980;28;20053;-88
2021/07/14 21:16:59;;;;;;;12.32;8.10;;;26.10;89.10;;;;;;5033794;28;20022;-88
2021/07/14 21:19:25;;;;;;;11.02;7.47;;;26.10;89.30;;;;;;5034937;28;20370;-88
2021/07/14 21:21:51;;;;;;;13.88;7.43;;;26.10;89.60;;;;;;5033691;28;20029;-88
2021/07/14 21:24:17;;;;;;;12.20;7.95;;;26.00;89.80;;;;;;5033836;28;20060;-88
2021/07/14 21:26:44;;;;;;;13.75;8.77;;;26.00;90.00;;;;;;5033548;28;20468;-88
2021/07/14 21:29:10;;;;;;;11.75;8.40;;;26.00;90.00;;;;;;5023554;28;20079;-89
2021/07/14 21:31:35;;;;;;;12.93;8.38;;;26.00;89.90;;;;;;5013946;28;20025;-88
2021/07/14 21:34:01;;;;;;;14.75;8.95;;;25.90;89.80;;;;;;5014200;28;20134;-88
2021/07/14 21:36:27;;;;;;;13.25;8.73;;;25.90;89.90;;;;;;5013775;28;20049;-88
2021/07/14 21:38:53;;;;;;;13.05;8.90;;;25.90;90.00;;;;;;5014473;28;20072;-88
2021/07/14 21:41:19;;;;;;;16.15;8.77;;;25.90;90.00;;;;;;5013899;28;20040;-91
2021/07/14 21:43:44;;;;;;;14.68;8.77;;;25.80;90.00;;;;;;5013684;28;20025;-88
2021/07/14 21:46:11;;;;;;;13.57;8.82;;;25.80;90.00;;;;;;5013639;28;20100;-88
2021/07/14 21:48:36;;;;;;;12.20;9.00;;;25.80;90.20;;;;;;5013539;28;20464;-88
2021/07/14 21:51:02;;;;;;;12.70;8.77;;;25.80;90.30;;;;;;5013722;28;20025;-88
2021/07/14 21:53:28;;;;;;;12.50;8.75;;;25.80;90.30;;;;;;5013576;28;20468;-88
2021/07/14 21:55:54;;;;;;;10.05;8.63;;;25.80;90.30;;;;;;5013507;28;20388;-88
2021/07/14 21:58:20;;;;;;;12.13;9.05;;;25.80;90.50;;;;;;5013597;28;20396;-88
2021/07/14 22:00:46;;;;;;;11.52;8.73;;;25.80;90.50;;;;;;5013515;28;20036;-88
2021/07/14 22:03:12;;;;;;;11.27;8.60;;;25.70;90.60;;;;;;5013392;28;20117;-88
2021/07/14 22:05:41;;;;;;;12.43;8.38;;;25.70;90.60;;;;;;5014882;28;20030;-88
2021/07/14 22:08:12;;;;;;;10.68;8.45;;;25.70;90.70;;;;;;5013199;28;20142;-88
2021/07/14 22:10:39;;;;;;;13.23;8.20;;;25.60;90.80;;;;;;5014513;28;20362;-88
2021/07/14 22:13:05;;;;;;;11.23;8.65;;;25.60;90.90;;;;;;5014741;28;20350;-88
2021/07/14 22:15:31;;;;;;;10.23;7.93;;;25.60;91.00;;;;;;5013269;28;20080;-88
2021/07/14 22:18:00;;;;;;;13.13;8.32;;;25.60;91.20;;;;;;5013333;28;20033;-88
2021/07/14 22:20:26;;;;;;;12.85;8.35;;;25.60;91.30;;;;;;5013313;28;20065;-88
2021/07/14 22:23:05;;;;;;;11.38;8.68;;;25.50;91.40;;;;;;5013472;28;20026;-88
2021/07/14 22:25:33;;;;;;;11.25;7.78;;;25.50;91.40;;;;;;5013302;28;20030;-88
2021/07/14 22:28:00;;;;;;;9.60;7.70;;;25.50;91.50;;;;;;5014401;28;20037;-88
2021/07/14 22:30:28;;;;;;;9.98;7.30;;;25.50;91.50;;;;;;5013220;28;20025;-88
2021/07/14 22:32:58;;;;;;;9.23;7.00;;;25.40;91.40;;;;;;5013206;28;20026;-88
2021/07/14 22:35:28;;;;;;;10.98;7.43;;;25.40;91.30;;;;;;5013144;28;20025;-88
2021/07/14 22:37:55;;;;;;;7.53;6.05;;;25.30;91.10;;;;;;5013239;28;20033;-88
2021/07/14 22:40:22;;;;;;;11.95;7.35;;;25.30;91.00;;;;;;5013462;28;20480;-88
2021/07/14 22:42:48;;;;;;;9.30;6.28;;;25.30;91.00;;;;;;5013188;28;20404;-88
2021/07/14 22:45:14;;;;;;;7.95;6.32;;;25.30;91.00;;;;;;5013167;28;20025;-88
2021/07/14 22:47:42;;;;;;;10.75;6.80;;;25.20;90.80;;;;;;5013781;28;20064;-88
2021/07/14 22:50:12;;;;;;;8.70;6.32;;;25.20;90.80;;;;;;5013116;28;20049;-88
2021/07/14 22:52:39;;;;;;;8.98;6.13;;;25.10;90.70;;;;;;5013111;28;20026;-88
2021/07/14 22:55:06;;;;;;;9.32;6.22;;;25.10;90.60;;;;;;5015436;28;20057;-88
2021/07/14 22:57:31;;;;;;;9.63;6.65;;;25.10;90.50;;;;;;5016745;28;20033;-89
2021/07/14 22:59:57;;;;;;;12.20;6.72;;;25.10;90.50;;;;;;5017012;28;20037;-88
2021/07/14 23:02:23;;;;;;;10.20;7.10;;;25.00;90.60;;;;;;5017059;28;20076;-88
2021/07/14 23:04:48;;;;;;;10.02;7.45;;;25.00;90.60;;;;;;5017046;28;20515;-88
2021/07/14 23:07:14;;;;;;;9.68;7.80;;;25.00;90.80;;;;;;5016213;28;20054;-88
2021/07/14 23:09:40;;;;;;;11.60;7.35;;;25.00;90.80;;;;;;5016954;28;20041;-89
2021/07/14 23:12:07;;;;;;;9.20;7.35;;;25.00;90.90;;;;;;5016520;28;20112;-89
2021/07/14 23:14:33;;;;;;;8.40;6.78;;;24.90;90.90;;;;;;5016399;28;20461;-88
2021/07/14 23:16:59;;;;;;;9.07;6.47;;;24.90;90.90;;;;;;5017301;28;20018;-88
2021/07/14 23:19:25;;;;;;;9.13;7.00;;;24.90;90.90;;;;;;5016571;28;20029;-88
2021/07/14 23:21:51;;;;;;;9.27;6.63;;;24.80;90.90;;;;;;5016240;28;20026;-89
2021/07/14 23:24:16;;;;;;;10.35;7.18;;;24.80;90.90;;;;;;5016304;28;20029;-88
2021/07/14 23:26:42;;;;;;;8.23;7.03;;;24.80;91.00;;;;;;5016070;28;20048;-89
2021/07/14 23:29:08;;;;;;;10.35;6.80;;;24.80;91.10;;;;;;5016046;28;20079;-89
2021/07/14 23:31:35;;;;;;;9.07;6.82;;;24.80;91.00;;;;;;5017190;28;20052;-89
2021/07/14 23:34:01;;;;;;;10.77;6.70;;;24.80;91.10;;;;;;5016543;28;20026;-88
2021/07/14 23:36:27;;;;;;;10.77;6.95;;;24.70;91.10;;;;;;5015944;28;20026;-89
2021/07/14 23:38:53;;;;;;;7.88;6.13;;;24.70;91.20;;;;;;5016005;28;20040;-88
2021/07/14 23:41:19;;;;;;;8.00;6.45;;;24.70;91.30;;;;;;5015969;28;20029;-89
2021/07/14 23:43:45;;;;;;;7.15;6.45;;;24.70;91.40;;;;;;5016813;28;20026;-89
2021/07/14 23:46:11;;;;;;;8.13;6.68;;;24.70;91.50;;;;;;5016237;28;20030;-89
2021/07/14 23:48:36;;;;;;;8.55;6.55;;;24.60;91.50;;;;;;5015722;28;20384;-89
2021/07/14 23:51:02;;;;;;;8.35;6.30;;;24.60;91.60;;;;;;5015698;28;20034;-89
2021/07/14 23:53:28;;;;;;;13.40;6.78;;;24.60;91.70;;;;;;5016375;28;20408;-89
2021/07/14 23:55:54;;;;;;;8.65;6.97;;;24.60;91.90;;;;;;5015902;28;20048;-88
2021/07/14 23:58:19;;;;;;;9.88;7.00;;;24.60;92.00;;;;;;5015826;28;20491;-89
